createdAt,value
2024-03-16T00:00:12.237Z,6.90
2024-03-16T00:02:40.957Z,6.90
2024-03-16T00:05:08.278Z,6.90
2024-03-16T00:07:35.459Z,6.90
2024-03-16T00:10:02.913Z,6.90
2024-03-16T00:12:30.055Z,7.00
2024-03-16T00:14:57.139Z,7.00
2024-03-16T00:17:26.640Z,7.00
2024-03-16T00:19:53.800Z,7.10
2024-03-16T00:22:20.766Z,7.10
2024-03-16T00:24:47.990Z,7.10
2024-03-16T00:27:14.949Z,7.10
2024-03-16T00:29:42.113Z,7.10
2024-03-16T00:32:09.270Z,7.10
2024-03-16T00:34:39.138Z,7.10
2024-03-16T00:37:06.245Z,7.10
2024-03-16T00:39:33.631Z,7.10
2024-03-16T00:42:00.584Z,7.20
2024-03-16T00:44:29.509Z,7.20
2024-03-16T00:46:56.528Z,7.20
2024-03-16T00:49:23.580Z,7.20
2024-03-16T00:51:51.602Z,7.20
2024-03-16T00:54:20.223Z,7.20
2024-03-16T00:56:51.640Z,7.20
2024-03-16T00:59:20.302Z,7.20
2024-03-16T01:01:47.240Z,7.30
2024-03-16T01:04:15.280Z,7.20
2024-03-16T01:06:42.562Z,7.20
2024-03-16T01:09:09.757Z,7.20
2024-03-16T01:11:36.838Z,7.20
2024-03-16T01:14:06.351Z,7.20
2024-03-16T01:16:33.291Z,7.20
2024-03-16T01:19:00.457Z,7.20
2024-03-16T01:21:28.818Z,7.20
2024-03-16T01:23:55.770Z,7.20
2024-03-16T01:26:27.148Z,7.20
2024-03-16T01:28:53.998Z,7.20
2024-03-16T01:31:22.860Z,7.20
2024-03-16T01:33:52.310Z,7.20
2024-03-16T01:36:24.049Z,7.10
2024-03-16T01:38:51.180Z,7.10
2024-03-16T01:41:23.804Z,7.10
2024-03-16T01:43:51.964Z,7.10
2024-03-16T01:46:21.923Z,7.10
2024-03-16T01:48:53.164Z,7.10
2024-03-16T01:51:20.720Z,7.10
2024-03-16T01:53:47.855Z,7.10
2024-03-16T01:56:15.003Z,7.10
2024-03-16T01:58:46.738Z,7.10
2024-03-16T02:01:15.276Z,7.10
2024-03-16T02:03:43.711Z,7.10
2024-03-16T02:06:10.776Z,7.10
2024-03-16T02:08:39.222Z,7.10
2024-03-16T02:11:07.271Z,7.10
2024-03-16T02:13:35.884Z,7.10
2024-03-16T02:16:03.640Z,7.00
2024-03-16T02:18:32.891Z,7.00
2024-03-16T02:20:59.759Z,7.00
2024-03-16T02:23:26.864Z,7.00
2024-03-16T02:25:53.794Z,6.90
2024-03-16T02:28:20.669Z,6.90
2024-03-16T02:30:47.887Z,6.90
2024-03-16T02:33:15.394Z,7.00
2024-03-16T02:35:44.761Z,6.90
2024-03-16T02:38:11.872Z,6.90
2024-03-16T02:40:38.846Z,6.90
2024-03-16T02:43:05.996Z,6.80
2024-03-16T02:45:33.432Z,6.90
2024-03-16T02:48:00.529Z,6.90
2024-03-16T02:50:29.222Z,6.90
2024-03-16T02:52:56.641Z,6.90
2024-03-16T02:55:25.079Z,6.90
2024-03-16T02:57:51.991Z,6.90
2024-03-16T03:00:19.634Z,6.90
2024-03-16T03:02:46.651Z,6.80
2024-03-16T03:05:16.970Z,6.90
2024-03-16T03:07:44.177Z,6.90
2024-03-16T03:10:12.842Z,6.90
2024-03-16T03:12:40.610Z,6.80
2024-03-16T03:15:10.892Z,6.80
2024-03-16T03:17:40.670Z,6.80
2024-03-16T03:20:10.683Z,6.90
2024-03-16T03:22:38.891Z,6.90
2024-03-16T03:25:07.711Z,6.80
2024-03-16T03:27:36.139Z,6.80
2024-03-16T03:30:04.129Z,6.80
2024-03-16T03:32:33.891Z,6.80
2024-03-16T03:35:01.263Z,6.90
2024-03-16T03:37:29.868Z,6.90
2024-03-16T03:39:56.985Z,6.80
2024-03-16T03:42:30.923Z,6.70
2024-03-16T03:45:16.104Z,6.70
2024-03-16T03:48:02.669Z,6.80
2024-03-16T03:50:30.459Z,6.80
2024-03-16T03:53:00.627Z,6.70
2024-03-16T03:55:28.847Z,6.70
2024-03-16T03:57:56.462Z,6.80
2024-03-16T04:00:23.770Z,6.70
2024-03-16T04:02:51.036Z,6.70
2024-03-16T04:05:18.395Z,6.70
2024-03-16T04:07:45.603Z,6.70
2024-03-16T04:10:13.013Z,6.70
2024-03-16T04:12:40.064Z,6.70
2024-03-16T04:15:07.892Z,6.70
2024-03-16T04:17:35.180Z,6.70
2024-03-16T04:20:02.148Z,6.70
2024-03-16T04:22:29.241Z,6.70
2024-03-16T04:24:56.255Z,6.70
2024-03-16T04:27:24.003Z,6.70
2024-03-16T04:29:51.466Z,6.70
2024-03-16T04:32:18.933Z,6.70
2024-03-16T04:34:45.994Z,6.70
2024-03-16T04:37:13.201Z,6.70
2024-03-16T04:39:44.736Z,6.60
2024-03-16T04:42:13.549Z,6.60
2024-03-16T04:44:40.665Z,6.60
2024-03-16T04:47:07.665Z,6.60
2024-03-16T04:49:34.829Z,6.60
2024-03-16T04:52:03.785Z,6.60
2024-03-16T04:54:30.679Z,6.50
2024-03-16T04:56:57.911Z,6.50
2024-03-16T04:59:25.895Z,6.50
2024-03-16T05:01:52.900Z,6.50
2024-03-16T05:04:22.440Z,6.50
2024-03-16T05:06:49.602Z,6.50
2024-03-16T05:09:16.814Z,6.50
2024-03-16T05:11:43.723Z,6.60
2024-03-16T05:14:11.101Z,6.60
2024-03-16T05:16:39.662Z,6.70
2024-03-16T05:19:08.543Z,6.70
2024-03-16T05:21:37.292Z,6.70
2024-03-16T05:24:04.895Z,6.80
2024-03-16T05:26:32.930Z,6.80
2024-03-16T05:29:00.001Z,6.80
2024-03-16T05:31:29.311Z,6.80
2024-03-16T05:33:56.525Z,6.80
2024-03-16T05:36:23.654Z,6.90
2024-03-16T05:38:50.749Z,6.80
2024-03-16T05:41:18.379Z,6.90
2024-03-16T05:43:45.720Z,6.90
2024-03-16T05:46:13.004Z,6.80
2024-03-16T05:48:40.203Z,6.90
2024-03-16T05:51:07.502Z,6.90
2024-03-16T05:53:34.784Z,6.90
2024-03-16T05:56:02.125Z,6.80
2024-03-16T05:58:32.642Z,6.90
2024-03-16T06:01:02.618Z,6.90
2024-03-16T06:03:31.765Z,6.90
2024-03-16T06:05:59.842Z,6.90
2024-03-16T06:08:27.260Z,6.90
2024-03-16T06:10:58.180Z,6.90
2024-03-16T06:13:25.416Z,6.90
2024-03-16T06:15:52.767Z,7.00
2024-03-16T06:18:20.267Z,7.00
2024-03-16T06:20:51.055Z,7.00
2024-03-16T06:23:18.739Z,6.90
2024-03-16T06:25:48.787Z,7.00
2024-03-16T06:28:18.786Z,7.00
2024-03-16T06:30:57.888Z,7.00
2024-03-16T06:33:34.593Z,7.00
2024-03-16T06:36:01.682Z,7.00
2024-03-16T06:38:30.916Z,7.10
2024-03-16T06:40:58.717Z,7.20
2024-03-16T06:43:27.974Z,7.20
2024-03-16T06:45:56.604Z,7.20
2024-03-16T06:48:24.295Z,7.20
2024-03-16T06:50:53.432Z,7.20
2024-03-16T06:53:20.343Z,7.20
2024-03-16T06:55:51.448Z,7.20
2024-03-16T06:58:18.638Z,7.20
2024-03-16T07:00:47.941Z,7.20
2024-03-16T07:03:18.533Z,7.30
2024-03-16T07:05:45.465Z,7.30
2024-03-16T07:08:17.291Z,7.40
2024-03-16T07:10:47.527Z,7.40
2024-03-16T07:13:14.856Z,7.40
2024-03-16T07:15:41.805Z,7.40
2024-03-16T07:18:08.939Z,7.50
2024-03-16T07:20:36.382Z,7.50
2024-03-16T07:23:04.359Z,7.50
2024-03-16T07:25:31.578Z,7.50
2024-03-16T07:27:59.322Z,7.60
2024-03-16T07:30:26.500Z,7.60
2024-03-16T07:32:53.961Z,7.60
2024-03-16T07:35:21.126Z,7.70
2024-03-16T07:37:48.158Z,7.70
2024-03-16T07:40:15.611Z,7.70
2024-03-16T07:42:43.322Z,7.70
2024-03-16T07:45:10.762Z,7.60
2024-03-16T07:47:38.170Z,7.60
2024-03-16T07:50:07.124Z,7.50
2024-03-16T07:52:35.327Z,7.50
2024-03-16T07:55:02.730Z,7.40
2024-03-16T07:57:32.506Z,7.40
2024-03-16T07:59:59.644Z,7.40
2024-03-16T08:02:27.528Z,7.40
2024-03-16T08:04:54.402Z,7.40
2024-03-16T08:07:22.762Z,7.40
2024-03-16T08:09:51.879Z,7.40
2024-03-16T08:12:18.945Z,7.40
2024-03-16T08:14:46.292Z,7.40
2024-03-16T08:17:13.545Z,7.30
2024-03-16T08:19:40.875Z,7.30
2024-03-16T08:22:08.310Z,7.20
2024-03-16T08:24:37.354Z,7.20
2024-03-16T08:27:05.513Z,7.10
2024-03-16T08:29:34.575Z,7.00
2024-03-16T08:32:01.758Z,6.80
2024-03-16T08:34:28.847Z,6.60
2024-03-16T08:36:56.183Z,6.60
2024-03-16T08:39:25.140Z,6.60
2024-03-16T08:41:56.502Z,6.50
2024-03-16T08:44:24.034Z,6.50
2024-03-16T08:46:51.247Z,6.50
2024-03-16T08:49:19.417Z,6.40
2024-03-16T08:51:46.370Z,6.30
2024-03-16T08:54:13.538Z,6.30
2024-03-16T08:56:41.563Z,6.20
2024-03-16T08:59:09.026Z,6.00
2024-03-16T09:01:38.866Z,5.90
2024-03-16T09:04:07.486Z,5.70
2024-03-16T09:06:36.361Z,5.70
2024-03-16T09:09:04.370Z,5.60
2024-03-16T09:11:33.007Z,5.50
2024-03-16T09:14:00.281Z,5.50
2024-03-16T09:16:27.220Z,5.50
2024-03-16T09:18:54.832Z,5.40
2024-03-16T09:21:22.039Z,5.40
2024-03-16T09:23:49.055Z,5.50
2024-03-16T09:26:16.095Z,5.40
2024-03-16T09:28:46.127Z,5.50
2024-03-16T09:31:13.685Z,5.30
2024-03-16T09:33:40.748Z,5.20
2024-03-16T09:36:07.791Z,5.20
2024-03-16T09:38:35.971Z,5.20
2024-03-16T09:41:03.837Z,5.10
